Canyon Lake, California
Current Conditions -  °F | °C
As of 2:35 PM on Tuesday 25 Nov 2014 (Local Time) from KF70 Reporting Station
Clear Clear  
Wind Chill: 77°   Ceiling: Unl
Heat Index: 77°   Visibility: 10mi
Dew Point:   Wind: 9mph
Humidity: 6%   Direction: 360°N
Pressure: 30.28"   Gusts: NA
Location:  33.6906°N, 117.25°W
Report Text: KF70 252235Z AUTO 36008KT 10SM CLR 25/M16 A3028 RMK AO1
Loading
Personal Weather Stations






























Interactive Weather Map New forecast layout! Learn more

10-Day Weather Forecast

Advertisements
Track Severe Weather on mobile